• Join FlightAware (Why Join?)
  • Login
  • US Flag 
01:34PM EDT


 

Airport Tracker/Info


-or-


 

Live Flight TrackerFlight Track Log ✈ KAP5 ✈ 05-Jul-2013 ✈ KACK - KBOS

Flight Track Log - Related Links

Times and Time Zones

All times are in EDT time to prevent confusion due to time zone crossing. See the KAP5 flight status page for this flight to view local times or setup timezone preferences in your user account.

Time Position Orientation Groundspeed Altitude Reporting Facility
EDT Latitude Longitude Course Direction KTS MPH feet Rate Location/Type
08:59AM 41.4059 -70.1752 331° Northwest  Level FlightAware Approximate
09:00AM 41.4249 -70.1915 323° Northwest  Level FlightAware Approximate
09:01AM 41.4482 -70.2149 323° Northwest  Level FlightAware Approximate
09:02AM 41.4734 -70.2347 330° Northwest  Level FlightAware Approximate
09:03AM 41.4987 -70.2543 330° Northwest  Level FlightAware Approximate
09:04AM 41.5240 -70.2738 330° Northwest  Level FlightAware Approximate
09:05AM 41.5493 -70.2934 330° Northwest  Level FlightAware Approximate
09:06AM 41.5746 -70.3130 330° Northwest  Level FlightAware Approximate
09:07AM 41.5999 -70.3326 330° Northwest  Level FlightAware Approximate
09:08AM 41.6252 -70.3522 330° Northwest  Level FlightAware Approximate
09:09AM 41.6505 -70.3719 330° Northwest  Level FlightAware Approximate
09:10AM 41.6758 -70.3915 330° Northwest  Level FlightAware Approximate
09:10AM 41.7500 -70.5667 330° Northwest 160 184 4,000  Level KA90
09:11AM 41.7010 -70.4112 330° Northwest  Level FlightAware Approximate
09:12AM 41.7263 -70.4309 330° Northwest  Level FlightAware Approximate
09:12AM 41.8000 -70.6000 334° Northwest 160 184 4,000  Level KA90
09:13AM 41.7516 -70.4506 330° Northwest  Level FlightAware Approximate
09:13AM 41.8500 -70.6167 346° North 164 189 4,000  Level KA90
09:14AM 41.7769 -70.4703 330° Northwest  Level FlightAware Approximate
09:14AM 41.9000 -70.6167 360° North 164 189 4,000  Level KA90
09:15AM 41.8021 -70.4901 330° Northwest  Level FlightAware Approximate
09:15AM 41.9333 -70.6167 360° North 165 190 4,000  Level KA90
09:16AM 41.8274 -70.5098 330° Northwest  Level FlightAware Approximate
09:16AM 41.9833 -70.6167 360° North 164 189 4,000  Level KA90
09:17AM 42.0333 -70.6333 346° North 165 190 4,000  Level KA90
09:18AM 42.0833 -70.6333 360° North 167 192 4,000 -120 Level KA90
09:19AM 42.1333 -70.6500 346° North 175 201 3,800 -480 Descending KA90
09:20AM 42.1667 -70.6667 340° North 182 209 3,200 -420 Descending KA90
09:21AM 42.2333 -70.6833 350° North 175 201 3,000 -120 Descending KA90
09:22AM 42.2667 -70.7000 340° North 162 186 3,000  Level KA90
09:23AM 42.3167 -70.7167 346° North 159 183 3,000  Level KA90
09:24AM 42.3500 -70.7167 360° North 159 183 3,000 -360 Level KA90
09:25AM 42.4000 -70.7500 334° Northwest 176 203 2,300 -540 Descending KA90
09:26AM 42.3833 -70.8167 251° West 171 197 1,900 -300 Descending KA90
09:27AM 42.3833 -70.8667 270° West 154 177 1,700 -540 Descending KA90
09:28AM 42.3667 -70.9333 251° West 168 193 900 -840 Descending KA90
09:30AM 42.3500 -71.0000 279° West  Level FlightAware Approximate
09:37AM 42.3630 -71.0064 279° West  Level Estimated